KJHW

Chautauqua County-Jamestown Airport

Airport
ICAO code
KJHW
Summary
ICAO Region
NAM
ICAO Territory
Location

Jamestown, New York,

Coordinates
42° 9' 12" N , 79° 15' 28" W
KCC
Airport GND
Aircraft Ground De/Anti Icing
Metar
Observation
KJHW 032056Z AUTO 36007KT 10SM CLR 12/04 A3030 RMK AO2 SLP271 T01170044 56011
Station
Jamestown, Chautauqua County/Jamestown Airport
Date/Time
2022-10-03 20:56:00
Wind direction
360°
Wind speed
07 kts
Lowest cloud amount
n/a
Temperature
11.7°C
Dew point
4.4°C
Humidity
60%
Weather condition
n/a

Description

Chautauqua County-Jamestown Airport is a public use airport located 6 km north of the central business district of Jamestown, a city in Chautauqua County, New York.

Climatology

Humid Continental climate (Köppen climate classification Dfb) - Variable weather patterns and a large seasonal temperature variance. Summers are often warm and humid with frequent thunderstorms and winters can be very cold with frequent snowfall and persistent snow cover.

Airport map

Aerial View

SKYbrary Partners:

Safety knowledge contributed by: